createdAt,value
2023-02-06T00:09:29.201Z,39.40
2023-02-06T00:19:36.323Z,42.30
2023-02-06T00:29:43.512Z,41.30
2023-02-06T00:39:50.652Z,36.90
2023-02-06T00:49:57.767Z,34.60
2023-02-06T01:00:04.079Z,35.40
2023-02-06T01:10:10.004Z,29.20
2023-02-06T01:20:17.386Z,26.60
2023-02-06T01:30:24.723Z,33.00
2023-02-06T01:40:31.936Z,29.70
2023-02-06T01:50:42.979Z,26.60
2023-02-06T02:00:51.863Z,31.30
2023-02-06T02:11:00.110Z,29.40
2023-02-06T02:21:49.995Z,30.90
2023-02-06T02:32:28.213Z,33.80
2023-02-06T02:42:41.268Z,32.70
2023-02-06T02:52:47.709Z,34.90
2023-02-06T03:02:57.319Z,35.00
2023-02-06T03:13:03.272Z,34.40
2023-02-06T03:23:13.190Z,43.70
2023-02-06T03:33:21.004Z,40.00
2023-02-06T03:43:30.837Z,39.20
2023-02-06T03:53:40.184Z,36.00
2023-02-06T04:03:47.456Z,39.20
2023-02-06T04:13:54.576Z,36.30
2023-02-06T04:24:01.871Z,44.10
2023-02-06T04:34:09.257Z,38.90
2023-02-06T04:44:16.450Z,34.20
2023-02-06T04:54:23.784Z,46.00
2023-02-06T05:04:29.805Z,46.10
2023-02-06T05:14:36.837Z,55.40
2023-02-06T05:24:43.855Z,59.90
2023-02-06T05:34:51.141Z,48.80
2023-02-06T05:44:58.539Z,40.30
2023-02-06T05:55:05.847Z,41.50
2023-02-06T06:05:12.848Z,43.60
2023-02-06T06:15:17.872Z,46.90
2023-02-06T06:25:25.002Z,54.60
2023-02-06T06:35:32.409Z,46.40
2023-02-06T06:45:39.863Z,38.40
2023-02-06T06:55:47.735Z,35.80
2023-02-06T07:05:55.091Z,58.30
2023-02-06T07:16:02.378Z,53.40
2023-02-06T07:26:10.193Z,58.20
2023-02-06T07:36:18.638Z,57.60
2023-02-06T07:46:26.938Z,54.90
2023-02-06T07:56:34.096Z,39.70
2023-02-06T08:06:44.088Z,34.60
2023-02-06T08:16:51.889Z,34.90
2023-02-06T08:27:00.231Z,31.10
2023-02-06T08:37:07.678Z,24.70
2023-02-06T08:47:15.080Z,17.70
2023-02-06T08:57:22.248Z,20.80
2023-02-06T09:07:32.158Z,16.80
2023-02-06T09:17:39.690Z,20.90
2023-02-06T09:27:47.608Z,21.90
2023-02-06T09:37:54.815Z,20.50
2023-02-06T09:48:05.272Z,18.90
2023-02-06T09:58:16.270Z,20.80
2023-02-06T10:08:23.343Z,19.90
2023-02-06T10:18:29.046Z,21.00
2023-02-06T10:28:37.153Z,19.60
2023-02-06T10:39:07.997Z,21.40
2023-02-06T10:49:15.534Z,22.70
2023-02-06T10:59:22.720Z,17.40
2023-02-06T11:09:30.955Z,13.60
2023-02-06T11:19:43.062Z,15.70
2023-02-06T11:29:52.378Z,13.80
2023-02-06T11:40:15.756Z,14.30
2023-02-06T11:50:25.029Z,14.70
2023-02-06T12:00:32.504Z,15.20
2023-02-06T12:10:49.936Z,16.60
2023-02-06T12:20:59.399Z,18.10
2023-02-06T12:41:18.901Z,17.00
2023-02-06T12:51:27.600Z,18.30
2023-02-06T13:01:49.031Z,17.30
2023-02-06T13:12:07.476Z,19.50
2023-02-06T13:22:45.396Z,17.80
2023-02-06T13:32:53.505Z,14.40
2023-02-06T13:42:58.334Z,15.30
2023-02-06T13:53:12.899Z,14.50
2023-02-06T14:03:23.001Z,15.40
2023-02-06T14:13:35.476Z,16.40
2023-02-06T14:23:44.746Z,15.60
2023-02-06T14:34:04.530Z,17.50
2023-02-06T14:44:13.147Z,17.20
2023-02-06T14:54:29.488Z,16.60
2023-02-06T15:04:45.767Z,15.90
2023-02-06T15:14:53.922Z,15.90
2023-02-06T15:25:06.345Z,15.20
2023-02-06T15:35:19.406Z,18.10
2023-02-06T15:45:30.285Z,17.20
2023-02-06T15:55:39.467Z,19.80
2023-02-06T16:05:46.910Z,19.80
2023-02-06T16:16:19.535Z,20.30
2023-02-06T16:26:28.928Z,16.10
2023-02-06T16:46:42.275Z,49.00
2023-02-06T16:56:50.185Z,42.60
2023-02-06T17:06:58.237Z,50.70
2023-02-06T17:17:05.421Z,45.80
2023-02-06T17:27:16.572Z,62.00
2023-02-06T17:37:23.317Z,47.50
2023-02-06T17:47:30.578Z,60.00
2023-02-06T17:57:37.278Z,58.40
2023-02-06T18:07:44.617Z,53.10
2023-02-06T18:17:52.095Z,64.70
2023-02-06T18:27:59.222Z,65.20
2023-02-06T18:38:06.118Z,71.60
2023-02-06T18:48:14.704Z,73.40
2023-02-06T18:58:22.448Z,63.40
2023-02-06T19:08:28.072Z,60.30
2023-02-06T19:18:38.947Z,61.60
2023-02-06T19:28:48.965Z,64.20
2023-02-06T19:38:57.322Z,59.00
2023-02-06T19:49:06.246Z,71.60
2023-02-06T20:09:22.819Z,66.20
2023-02-06T20:29:39.177Z,65.00
2023-02-06T20:39:46.871Z,69.90
2023-02-06T20:49:51.500Z,64.20
2023-02-06T20:59:58.907Z,68.50
2023-02-06T21:20:13.980Z,71.40
2023-02-06T21:30:20.494Z,72.90
2023-02-06T21:40:28.185Z,69.60
2023-02-06T21:50:38.155Z,75.50
2023-02-06T22:00:43.589Z,72.10
2023-02-06T22:10:50.762Z,71.20
2023-02-06T22:21:03.377Z,67.50
2023-02-06T22:31:08.348Z,53.50
2023-02-06T22:41:18.078Z,119.80
2023-02-06T22:51:24.094Z,210.00
2023-02-06T23:01:33.364Z,174.90
2023-02-06T23:11:39.093Z,164.40
2023-02-06T23:21:47.729Z,154.10
2023-02-06T23:42:01.939Z,146.80
2023-02-06T23:52:08.084Z,146.30
